Airport Name : Campo Grande

Other Name : Campo Grande

ICAO : SBCG

IATA : CGR

FAA :

Latitude : -20.468667

Longitude : -54.6725

Country : Brazil

Local Date and Time : 1/22/2018 1:05:00 PM

 

TAF (Terminal Aerodrome Forecast)

TAF SBCG 221400Z 2218/2318 32006KT 9999 SCT040 FEW045TCU TN23/2308Z T X34/2317Z PROB30 2218/2220 VCTS SCT040 FEW045CB BECMG 2222/2224 02008KT CAVOK BECMG 2312/2314 35007KT 9999 SCT030 RMK PDV

 

METAR (METeorological Aerodrome Report)

SBCG 221600Z 30008KT 9999 SCT035 FEW040TCU 32/22 Q1012

SBCG 221500Z 32008KT 260V360 9999 SCT040 FEW045TCU 31/22 Q1013

SBCG 221400Z 32006KT 250V020 9999 SCT040 FEW045TCU 30/22 Q1014

SBCG 221300Z 34005KT 300V360 9999 FEW040 FEW045TCU SCT100 28/22 Q1014